KBAM/BAM METAR and TAF weather

Enter ICAO airport designator
Station Type Date Time Source
KBAM METAR 2022/07/03 14:35 UTC NOAA

KBAM 031435Z AUTO 00000KT 10SM CLR A2996 RMK AO1


Station Type Date Time Source
KBAM Decoded METAR 2022/07/03 14:35 UTC NOAA

Station name not available
Jul 03, 2022 - 10:35 AM EDT / 2022.07.03 1435 UTC
Wind: Calm:0
Visibility: 10 mile(s):0
Sky conditions: clear
Pressure (altimeter): 29.96 in. Hg (1014 hPa)
ob: KBAM 031435Z AUTO 00000KT 10SM CLR A2996 RMK AO1
cycle: 14

Station Type Date Time Source
KBAM TAF 2022/07/03 12:22 UTC NOAA

TAF KBAM 031120Z 0312/0412 24008KT P6SM BKN120
FM031800 25015G25KT 6SM HZ SCT120
FM040400 25008KT P6SM BKN120

Example: see airport list